Time;durP1;ratioP1;P1;durP2;ratioP2;P2;SDS_P1;SDS_P2;PMS_P1;PMS_P2;Temp;Humidity;BMP_temperature;BMP_pressure;BME280_temperature;BME280_humidity;BME280_pressure;Samples;Min_cycle;Max_cycle;Signal;HPM_P1;HPM_P2
2022/06/04 00:01:51;;;;;;;10.57;6.15;;;;;;;;;;6276521;22;20035;-72
2022/06/04 00:04:19;;;;;;;9.05;6.05;;;;;;;;;;6249773;22;20011;-72
2022/06/04 00:06:48;;;;;;;9.45;6.25;;;;;;;;;;6276497;22;20019;-72
2022/06/04 00:09:16;;;;;;;12.35;6.25;;;;;;;;;;6276376;22;20011;-72
2022/06/04 00:17:20;;;;;;;10.48;6.47;;;;;;;;;;6276185;22;20050;-72
2022/06/04 00:19:48;;;;;;;11.07;7.10;;;;;;;;;;6249131;22;20023;-72
2022/06/04 00:22:16;;;;;;;8.40;6.15;;;;;;;;;;6276319;22;20058;-72
2022/06/04 00:24:44;;;;;;;9.77;6.78;;;;;;;;;;6276269;22;20043;-72
2022/06/04 00:27:16;;;;;;;10.95;6.28;;;;;;;;;;6276406;22;20012;-72
2022/06/04 00:29:44;;;;;;;10.23;6.43;;;;;;;;;;6276354;22;20388;-72
2022/06/04 00:32:12;;;;;;;9.55;6.82;;;;;;;;;;6276186;22;20015;-72
2022/06/04 00:34:39;;;;;;;7.80;6.63;;;;;;;;;;6276217;22;20098;-72
2022/06/04 00:37:07;;;;;;;10.98;6.93;;;;;;;;;;6276084;22;20016;-72
2022/06/04 00:39:35;;;;;;;8.23;6.82;;;;;;;;;;6249283;22;20532;-72
2022/06/04 00:42:13;;;;;;;10.77;7.22;;;;;;;;;;6276099;22;20077;-72
2022/06/04 00:44:46;;;;;;;9.25;7.20;;;;;;;;;;6276119;22;20077;-72
2022/06/04 00:47:20;;;;;;;8.27;7.13;;;;;;;;;;6276161;22;20090;-72
2022/06/04 00:49:48;;;;;;;11.02;7.60;;;;;;;;;;6276172;22;20082;-72
2022/06/04 00:52:16;;;;;;;10.90;7.32;;;;;;;;;;6248921;22;20024;-72
2022/06/04 00:54:46;;;;;;;8.40;7.45;;;;;;;;;;6276058;22;20016;-72
2022/06/04 00:57:13;;;;;;;8.77;7.50;;;;;;;;;;6276002;22;20015;-72
2022/06/04 00:59:50;;;;;;;9.43;7.90;;;;;;;;;;6275698;22;20020;-72
2022/06/04 01:02:21;;;;;;;10.93;7.78;;;;;;;;;;6275970;22;20042;-72
2022/06/04 01:05:04;;;;;;;11.02;7.63;;;;;;;;;;6275585;22;20039;-72
2022/06/04 01:07:55;;;;;;;9.65;8.50;;;;;;;;;;6276280;22;20031;-72
2022/06/04 01:10:23;;;;;;;10.27;7.82;;;;;;;;;;6275848;22;20469;-72
2022/06/04 01:13:11;;;;;;;10.00;8.07;;;;;;;;;;6276176;22;20024;-72
2022/06/04 01:15:57;;;;;;;9.05;8.15;;;;;;;;;;6275770;22;20085;-72
2022/06/04 01:18:44;;;;;;;11.50;8.20;;;;;;;;;;6275724;22;20488;-72
2022/06/04 01:21:16;;;;;;;11.75;8.73;;;;;;;;;;6275755;22;20043;-72
2022/06/04 01:23:56;;;;;;;12.15;8.82;;;;;;;;;;6275504;22;20016;-73
2022/06/04 01:26:26;;;;;;;9.88;8.38;;;;;;;;;;6275885;22;20043;-72
2022/06/04 01:29:01;;;;;;;11.50;8.48;;;;;;;;;;6275935;22;20074;-72
2022/06/04 01:31:36;;;;;;;10.15;8.57;;;;;;;;;;6275933;22;20011;-72
2022/06/04 01:34:06;;;;;;;10.02;8.82;;;;;;;;;;6275760;22;20385;-72
2022/06/04 01:36:42;;;;;;;12.05;9.45;;;;;;;;;;6275911;22;20016;-72
2022/06/04 01:39:14;;;;;;;9.15;8.25;;;;;;;;;;6275763;22;20012;-72
2022/06/04 01:41:48;;;;;;;10.80;8.73;;;;;;;;;;6275697;22;20090;-72
2022/06/04 01:44:19;;;;;;;10.50;8.63;;;;;;;;;;6275796;22;20016;-72
2022/06/04 01:46:51;;;;;;;12.00;8.55;;;;;;;;;;6275550;22;20020;-72
2022/06/04 01:49:27;;;;;;;12.55;8.90;;;;;;;;;;6275966;22;20412;-72
2022/06/04 01:51:57;;;;;;;12.27;8.50;;;;;;;;;;6275603;22;20019;-72
2022/06/04 01:54:29;;;;;;;12.05;9.35;;;;;;;;;;6275722;22;20472;-72
2022/06/04 01:57:00;;;;;;;11.98;8.75;;;;;;;;;;6248870;22;20099;-72
2022/06/04 01:59:27;;;;;;;13.23;8.75;;;;;;;;;;6248401;22;20069;-72
2022/06/04 02:01:56;;;;;;;11.93;9.18;;;;;;;;;;6276077;22;20107;-72
2022/06/04 02:04:26;;;;;;;12.25;8.85;;;;;;;;;;6275776;22;20045;-72
2022/06/04 02:09:48;;;;;;;17.77;9.55;;;;;;;;;;6275590;22;20146;-72
2022/06/04 02:12:15;;;;;;;13.55;9.23;;;;;;;;;;6275609;22;20050;-73
2022/06/04 02:14:43;;;;;;;15.00;9.95;;;;;;;;;;6275485;22;20473;-72
2022/06/04 02:17:15;;;;;;;14.52;9.88;;;;;;;;;;6276829;22;20050;-72
2022/06/04 02:19:42;;;;;;;14.20;10.13;;;;;;;;;;6277293;22;20015;-72
2022/06/04 02:22:10;;;;;;;13.18;9.52;;;;;;;;;;6277526;22;20334;-72
2022/06/04 02:24:39;;;;;;;11.50;9.23;;;;;;;;;;6277548;22;20016;-72
2022/06/04 02:27:06;;;;;;;13.00;9.23;;;;;;;;;;6250593;22;20016;-72
2022/06/04 02:29:37;;;;;;;17.33;10.48;;;;;;;;;;6277249;22;20018;-72
2022/06/04 02:32:10;;;;;;;12.57;9.13;;;;;;;;;;6277320;22;20442;-72
2022/06/04 02:34:44;;;;;;;12.80;9.65;;;;;;;;;;6277401;22;20012;-73
2022/06/04 02:37:17;;;;;;;14.60;10.02;;;;;;;;;;6277379;22;20062;-73
2022/06/04 02:39:48;;;;;;;13.70;9.55;;;;;;;;;;6250331;22;20454;-73
2022/06/04 02:42:32;;;;;;;16.10;10.18;;;;;;;;;;6277602;22;20019;-74
2022/06/04 02:45:21;;;;;;;14.98;10.15;;;;;;;;;;6277323;22;20020;-74
2022/06/04 02:47:56;;;;;;;13.43;9.85;;;;;;;;;;6277482;22;20359;-73
2022/06/04 02:50:26;;;;;;;11.10;9.52;;;;;;;;;;6277269;22;20019;-73
2022/06/04 02:52:55;;;;;;;17.33;10.07;;;;;;;;;;6277274;22;20026;-73
2022/06/04 02:55:27;;;;;;;17.20;10.48;;;;;;;;;;6277285;22;20012;-73
2022/06/04 02:57:58;;;;;;;14.18;10.90;;;;;;;;;;6277391;22;20323;-74
2022/06/04 03:00:27;;;;;;;13.93;10.48;;;;;;;;;;6277043;22;20011;-73
2022/06/04 03:02:54;;;;;;;14.23;10.98;;;;;;;;;;6277632;22;20023;-73
2022/06/04 03:05:24;;;;;;;15.32;10.90;;;;;;;;;;6277159;22;20034;-73
2022/06/04 03:07:54;;;;;;;13.75;10.07;;;;;;;;;;6277183;22;20046;-73
2022/06/04 03:10:26;;;;;;;14.25;11.25;;;;;;;;;;6276820;22;20019;-73
2022/06/04 03:12:54;;;;;;;16.17;10.98;;;;;;;;;;6276739;22;20472;-72
2022/06/04 03:15:21;;;;;;;14.75;11.65;;;;;;;;;;6275899;22;20050;-72
2022/06/04 03:17:49;;;;;;;14.32;10.65;;;;;;;;;;6276726;22;20096;-73
2022/06/04 03:20:19;;;;;;;15.27;11.30;;;;;;;;;;6276896;22;20019;-72
2022/06/04 03:22:47;;;;;;;16.63;11.43;;;;;;;;;;6249682;22;20031;-73
2022/06/04 03:25:14;;;;;;;15.32;11.38;;;;;;;;;;6276014;22;20381;-73
2022/06/04 03:27:42;;;;;;;14.00;10.63;;;;;;;;;;6276458;22;20442;-73
2022/06/04 03:30:10;;;;;;;11.98;10.43;;;;;;;;;;6276866;22;20012;-73
2022/06/04 03:32:37;;;;;;;16.95;10.07;;;;;;;;;;6276532;22;20454;-73
2022/06/04 03:35:05;;;;;;;15.32;11.32;;;;;;;;;;6276852;22;20034;-73
2022/06/04 03:37:34;;;;;;;14.60;12.05;;;;;;;;;;6276350;22;20027;-73
2022/06/04 03:40:05;;;;;;;12.88;10.30;;;;;;;;;;6249785;22;20020;-73
2022/06/04 03:42:33;;;;;;;13.05;10.07;;;;;;;;;;6276417;22;20026;-73
2022/06/04 03:45:00;;;;;;;16.38;10.27;;;;;;;;;;6276843;22;20015;-74
2022/06/04 03:47:28;;;;;;;19.10;11.15;;;;;;;;;;6276691;22;20069;-73
2022/06/04 03:49:55;;;;;;;14.00;10.57;;;;;;;;;;6276676;22;20073;-74
2022/06/04 03:52:23;;;;;;;16.77;10.80;;;;;;;;;;6276628;22;20015;-73
2022/06/04 03:54:53;;;;;;;11.55;9.82;;;;;;;;;;6276744;22;20011;-74
2022/06/04 03:57:37;;;;;;;13.82;9.80;;;;;;;;;;6276589;22;20039;-73
2022/06/04 04:00:09;;;;;;;17.15;10.43;;;;;;;;;;6276583;22;20019;-74
2022/06/04 04:02:40;;;;;;;17.60;9.70;;;;;;;;;;6276502;22;20081;-73
2022/06/04 04:05:09;;;;;;;14.57;9.68;;;;;;;;;;6276465;22;20694;-74
2022/06/04 04:07:36;;;;;;;11.85;9.48;;;;;;;;;;6276688;22;20015;-74
2022/06/04 04:10:04;;;;;;;12.73;9.55;;;;;;;;;;6276693;22;20025;-74
2022/06/04 04:12:32;;;;;;;14.15;10.02;;;;;;;;;;6276483;22;20039;-74
2022/06/04 04:14:59;;;;;;;13.07;8.77;;;;;;;;;;6276449;22;20019;-74
2022/06/04 04:17:27;;;;;;;11.77;9.85;;;;;;;;;;6276418;22;20026;-73
2022/06/04 04:19:54;;;;;;;14.88;10.07;;;;;;;;;;6276439;22;20016;-74
2022/06/04 04:22:22;;;;;;;14.63;9.55;;;;;;;;;;6276517;22;20437;-73
2022/06/04 04:24:49;;;;;;;14.35;9.77;;;;;;;;;;6276591;22;20082;-74
2022/06/04 04:27:17;;;;;;;13.25;9.75;;;;;;;;;;6276290;22;20031;-74
2022/06/04 04:29:44;;;;;;;15.25;10.20;;;;;;;;;;6276250;22;20016;-74
2022/06/04 04:32:12;;;;;;;18.02;10.05;;;;;;;;;;6276240;22;20019;-73
2022/06/04 04:34:39;;;;;;;15.77;9.75;;;;;;;;;;6276401;22;20031;-73
2022/06/04 04:37:07;;;;;;;15.63;9.63;;;;;;;;;;6276701;22;20345;-72
2022/06/04 04:39:34;;;;;;;13.38;9.88;;;;;;;;;;6276291;22;20016;-72
2022/06/04 04:42:02;;;;;;;15.75;9.15;;;;;;;;;;6276042;22;20019;-72
2022/06/04 04:44:30;;;;;;;11.63;8.52;;;;;;;;;;6276201;22;20015;-72
2022/06/04 04:46:57;;;;;;;16.83;8.63;;;;;;;;;;6249365;22;20023;-67
2022/06/04 04:49:25;;;;;;;11.32;7.68;;;;;;;;;;6276047;22;20445;-74
2022/06/04 04:51:53;;;;;;;14.02;8.38;;;;;;;;;;6276073;22;20023;-73
2022/06/04 04:54:20;;;;;;;8.55;7.53;;;;;;;;;;6276089;22;20039;-72
2022/06/04 04:56:48;;;;;;;14.43;8.18;;;;;;;;;;6249131;22;20031;-73
2022/06/04 04:59:15;;;;;;;10.00;7.65;;;;;;;;;;6275917;22;20012;-73
2022/06/04 05:01:42;;;;;;;12.55;8.65;;;;;;;;;;6275984;22;20438;-72
2022/06/04 05:04:10;;;;;;;10.93;7.90;;;;;;;;;;6275696;22;20011;-73
2022/06/04 05:06:38;;;;;;;13.73;7.88;;;;;;;;;;6276177;22;20019;-72
2022/06/04 05:09:05;;;;;;;11.50;8.15;;;;;;;;;;6273538;22;20391;-73
2022/06/04 05:11:33;;;;;;;10.65;7.15;;;;;;;;;;6274835;22;20015;-72
2022/06/04 05:14:01;;;;;;;9.32;7.30;;;;;;;;;;6274884;22;20011;-70
2022/06/04 05:16:30;;;;;;;13.27;7.30;;;;;;;;;;6275092;22;20019;-72
2022/06/04 05:18:58;;;;;;;10.35;7.15;;;;;;;;;;6274188;22;20019;-72
2022/06/04 05:21:42;;;;;;;8.85;6.47;;;;;;;;;;6274093;22;20077;-72
2022/06/04 05:24:15;;;;;;;8.25;5.60;;;;;;;;;;6274813;22;20397;-72
2022/06/04 05:26:43;;;;;;;7.18;5.68;;;;;;;;;;6274548;22;20066;-71
2022/06/04 05:29:11;;;;;;;8.70;5.20;;;;;;;;;;6274755;22;20509;-70
2022/06/04 05:31:39;;;;;;;9.68;5.20;;;;;;;;;;6274581;22;20015;-71
2022/06/04 05:34:07;;;;;;;8.85;4.78;;;;;;;;;;6274301;22;20016;-72
2022/06/04 05:36:35;;;;;;;6.30;4.85;;;;;;;;;;6274794;22;20015;-72
2022/06/04 05:39:04;;;;;;;6.15;5.25;;;;;;;;;;6274603;22;20369;-72
2022/06/04 05:41:31;;;;;;;7.68;5.10;;;;;;;;;;6247714;22;20042;-71
2022/06/04 05:43:59;;;;;;;5.78;4.65;;;;;;;;;;6275037;22;20023;-72
2022/06/04 05:46:26;;;;;;;6.40;4.90;;;;;;;;;;6274349;22;20047;-71
2022/06/04 05:48:54;;;;;;;10.60;4.97;;;;;;;;;;6273788;22;20016;-72
2022/06/04 05:51:23;;;;;;;7.05;4.35;;;;;;;;;;6274935;22;20070;-72
2022/06/04 05:53:52;;;;;;;4.55;4.07;;;;;;;;;;6276265;22;20019;-70
2022/06/04 05:56:21;;;;;;;8.32;4.35;;;;;;;;;;6276436;22;20090;-71
2022/06/04 05:58:50;;;;;;;7.57;4.50;;;;;;;;;;6276176;22;20425;-68
2022/06/04 06:01:19;;;;;;;8.23;4.88;;;;;;;;;;6276214;22;20085;-66
2022/06/04 06:03:47;;;;;;;6.45;5.28;;;;;;;;;;6276199;22;20015;-62
2022/06/04 06:06:16;;;;;;;6.05;5.43;;;;;;;;;;6276372;22;20020;-63
2022/06/04 06:08:58;;;;;;;6.53;5.28;;;;;;;;;;6275491;22;20446;-62
2022/06/04 06:11:26;;;;;;;6.55;5.20;;;;;;;;;;6276177;22;20437;-63
2022/06/04 06:13:53;;;;;;;8.25;4.90;;;;;;;;;;6275970;22;20016;-62
2022/06/04 06:16:22;;;;;;;6.50;4.22;;;;;;;;;;6275736;22;20311;-62
2022/06/04 06:18:50;;;;;;;7.18;4.22;;;;;;;;;;6277302;22;20015;-63
2022/06/04 06:21:21;;;;;;;6.93;5.38;;;;;;;;;;6277421;22;20315;-63
2022/06/04 06:23:49;;;;;;;8.32;4.70;;;;;;;;;;6250906;22;20020;-63
2022/06/04 06:26:19;;;;;;;15.90;10.88;;;;;;;;;;6250679;22;20039;-63
2022/06/04 06:28:47;;;;;;;8.88;6.55;;;;;;;;;;6277743;22;20019;-63
2022/06/04 06:31:16;;;;;;;6.28;3.92;;;;;;;;;;6277415;22;20442;-63
2022/06/04 06:33:44;;;;;;;10.07;4.30;;;;;;;;;;6274646;22;20069;-63
2022/06/04 06:36:12;;;;;;;6.22;4.35;;;;;;;;;;6276545;22;20011;-62
2022/06/04 06:38:40;;;;;;;8.18;4.00;;;;;;;;;;6276825;22;20047;-62
2022/06/04 06:41:08;;;;;;;6.40;4.30;;;;;;;;;;6276856;22;20022;-64
2022/06/04 06:43:38;;;;;;;5.78;4.50;;;;;;;;;;6276391;22;20016;-65
2022/06/04 06:46:07;;;;;;;6.65;3.92;;;;;;;;;;6276562;22;20129;-63
2022/06/04 06:48:36;;;;;;;6.05;4.03;;;;;;;;;;6276790;22;20016;-63
2022/06/04 06:51:08;;;;;;;6.10;3.75;;;;;;;;;;6276314;22;20022;-63
2022/06/04 06:53:35;;;;;;;4.28;3.85;;;;;;;;;;6276278;22;20046;-63
2022/06/04 06:56:17;;;;;;;5.82;3.90;;;;;;;;;;6276817;22;20016;-63
2022/06/04 06:58:45;;;;;;;7.40;4.57;;;;;;;;;;6276683;22;20016;-64
2022/06/04 07:01:12;;;;;;;5.47;4.00;;;;;;;;;;6276744;22;20016;-64
2022/06/04 07:03:41;;;;;;;7.70;4.35;;;;;;;;;;6275700;22;20020;-64
2022/06/04 07:06:09;;;;;;;6.53;4.38;;;;;;;;;;6276712;22;20449;-64
2022/06/04 07:08:38;;;;;;;5.93;4.05;;;;;;;;;;6276744;22;20015;-64
2022/06/04 07:11:05;;;;;;;6.93;4.20;;;;;;;;;;6276835;22;20015;-64
2022/06/04 07:13:33;;;;;;;5.53;4.18;;;;;;;;;;6276788;22;20023;-64
2022/06/04 07:16:00;;;;;;;6.40;4.10;;;;;;;;;;6276721;22;20020;-64
2022/06/04 07:18:28;;;;;;;5.97;4.00;;;;;;;;;;6277138;22;20283;-64
2022/06/04 07:20:55;;;;;;;8.15;4.07;;;;;;;;;;6276858;22;20012;-64
2022/06/04 07:23:23;;;;;;;6.70;3.80;;;;;;;;;;6276596;22;20019;-64
2022/06/04 07:25:50;;;;;;;7.72;4.13;;;;;;;;;;6276519;22;20016;-64
2022/06/04 07:28:18;;;;;;;7.32;4.43;;;;;;;;;;6276537;22;20019;-64
2022/06/04 07:30:45;;;;;;;5.18;3.80;;;;;;;;;;6276128;22;20047;-64
2022/06/04 07:33:13;;;;;;;7.30;4.55;;;;;;;;;;6276526;22;20023;-64
2022/06/04 07:35:46;;;;;;;8.85;4.13;;;;;;;;;;6276550;22;20035;-64
2022/06/04 07:38:13;;;;;;;8.55;4.10;;;;;;;;;;6249468;22;20046;-65
2022/06/04 07:40:41;;;;;;;7.07;4.85;;;;;;;;;;6276352;22;20015;-65
2022/06/04 07:43:08;;;;;;;6.38;3.90;;;;;;;;;;6276504;22;20020;-65
2022/06/04 07:45:36;;;;;;;7.53;4.25;;;;;;;;;;6276556;22;20015;-65
2022/06/04 07:48:04;;;;;;;8.95;5.40;;;;;;;;;;6276470;22;20023;-65
2022/06/04 07:50:32;;;;;;;6.45;4.38;;;;;;;;;;6276384;22;20026;-65
2022/06/04 07:53:00;;;;;;;8.05;5.18;;;;;;;;;;6249598;22;20385;-65
2022/06/04 07:55:28;;;;;;;9.38;4.60;;;;;;;;;;6249247;22;20022;-65
2022/06/04 07:57:56;;;;;;;6.18;4.22;;;;;;;;;;6276208;22;20502;-65
2022/06/04 08:00:24;;;;;;;8.90;4.50;;;;;;;;;;6276395;22;20020;-65
2022/06/04 08:02:54;;;;;;;7.47;4.70;;;;;;;;;;6276355;22;20015;-66
2022/06/04 08:05:24;;;;;;;11.18;4.40;;;;;;;;;;6276400;22;20039;-65
2022/06/04 08:07:52;;;;;;;5.00;4.40;;;;;;;;;;6276155;22;20020;-65
2022/06/04 08:10:19;;;;;;;6.97;4.00;;;;;;;;;;6276581;22;20065;-65
2022/06/04 08:12:59;;;;;;;5.75;5.15;;;;;;;;;;6275787;22;20047;-66
2022/06/04 08:15:26;;;;;;;5.60;4.35;;;;;;;;;;6275510;22;20016;-64
2022/06/04 08:17:54;;;;;;;6.88;4.40;;;;;;;;;;6276222;22;20020;-65
2022/06/04 08:20:21;;;;;;;6.60;3.85;;;;;;;;;;6276040;22;20432;-66
2022/06/04 08:22:49;;;;;;;3.88;3.53;;;;;;;;;;6249223;22;20023;-66
2022/06/04 08:25:16;;;;;;;4.32;3.70;;;;;;;;;;6276160;22;20039;-65
2022/06/04 08:27:44;;;;;;;5.95;3.95;;;;;;;;;;6276163;22;20015;-66
2022/06/04 08:30:13;;;;;;;5.45;4.20;;;;;;;;;;6276091;22;20016;-66
2022/06/04 08:32:41;;;;;;;5.65;3.65;;;;;;;;;;6276057;22;20027;-66
2022/06/04 08:35:08;;;;;;;4.78;3.88;;;;;;;;;;6276206;22;20015;-66
2022/06/04 08:37:36;;;;;;;5.68;3.58;;;;;;;;;;6275852;22;20024;-66
2022/06/04 08:40:03;;;;;;;7.07;3.80;;;;;;;;;;6276005;22;20011;-66
2022/06/04 08:42:44;;;;;;;5.35;3.90;;;;;;;;;;6275755;22;20019;-65
2022/06/04 08:45:12;;;;;;;5.25;3.53;;;;;;;;;;6275741;22;20015;-65
2022/06/04 08:47:44;;;;;;;5.47;4.68;;;;;;;;;;6275750;22;20057;-65
2022/06/04 08:50:12;;;;;;;6.15;3.92;;;;;;;;;;6275904;22;20015;-65
2022/06/04 08:52:39;;;;;;;5.00;4.00;;;;;;;;;;6248975;22;20020;-65
2022/06/04 08:58:18;;;;;;;5.22;3.72;;;;;;;;;;6240481;22;20027;-65
2022/06/04 09:00:55;;;;;;;8.20;4.47;;;;;;;;;;6275648;22;20526;-65
2022/06/04 09:03:41;;;;;;;5.32;3.92;;;;;;;;;;6275785;22;20446;-66
2022/06/04 09:06:28;;;;;;;6.15;4.10;;;;;;;;;;6275586;22;20465;-66
2022/06/04 09:09:01;;;;;;;6.32;3.97;;;;;;;;;;6275736;22;20087;-65
2022/06/04 09:11:37;;;;;;;5.85;4.18;;;;;;;;;;6276149;22;20011;-66
2022/06/04 09:14:17;;;;;;;4.57;3.70;;;;;;;;;;6275754;22;20012;-65
2022/06/04 09:16:49;;;;;;;6.22;4.00;;;;;;;;;;6275681;22;20023;-66
2022/06/04 09:19:22;;;;;;;4.45;4.05;;;;;;;;;;6275647;22;20096;-68
2022/06/04 09:21:49;;;;;;;6.78;4.05;;;;;;;;;;6248096;22;20377;-65
2022/06/04 09:24:17;;;;;;;7.30;4.28;;;;;;;;;;6275543;22;20020;-65
2022/06/04 09:26:56;;;;;;;6.78;4.18;;;;;;;;;;6274844;22;20037;-66
2022/06/04 09:29:32;;;;;;;4.88;4.28;;;;;;;;;;6275287;22;20073;-66
2022/06/04 09:32:00;;;;;;;7.88;4.10;;;;;;;;;;6275208;22;20020;-67
2022/06/04 09:34:33;;;;;;;5.72;4.35;;;;;;;;;;6275285;22;20087;-66
2022/06/04 09:37:00;;;;;;;4.82;4.10;;;;;;;;;;6275220;22;20039;-68
2022/06/04 09:39:29;;;;;;;7.13;3.83;;;;;;;;;;6275386;22;20016;-67
2022/06/04 09:42:13;;;;;;;5.38;3.88;;;;;;;;;;6275179;22;20015;-67
2022/06/04 09:45:00;;;;;;;7.85;4.43;;;;;;;;;;6275152;22;20472;-67
2022/06/04 09:47:47;;;;;;;5.45;3.80;;;;;;;;;;6275139;22;20338;-67
2022/06/04 09:50:31;;;;;;;5.03;4.35;;;;;;;;;;6274354;22;20046;-68
2022/06/04 09:52:59;;;;;;;6.10;4.22;;;;;;;;;;6274611;22;20450;-68
2022/06/04 09:55:27;;;;;;;5.32;3.97;;;;;;;;;;6275165;22;20020;-68
2022/06/04 09:57:56;;;;;;;4.88;4.15;;;;;;;;;;6274684;22;20457;-68
2022/06/04 10:00:26;;;;;;;5.68;4.22;;;;;;;;;;6275192;22;20091;-69
2022/06/04 10:02:57;;;;;;;21.38;8.45;;;;;;;;;;6275105;22;20122;-70
2022/06/04 10:05:27;;;;;;;64.57;38.85;;;;;;;;;;6275358;22;20015;-70
2022/06/04 10:07:56;;;;;;;60.72;54.72;;;;;;;;;;6275322;22;20041;-70
2022/06/04 10:10:29;;;;;;;10.23;8.38;;;;;;;;;;6275290;22;20016;-70
2022/06/04 10:15:44;;;;;;;5.32;4.13;;;;;;;;;;6274903;22;20069;-70
2022/06/04 10:18:24;;;;;;;12.25;5.38;;;;;;;;;;6275418;22;20073;-70
2022/06/04 10:20:56;;;;;;;9.38;6.95;;;;;;;;;;6274606;22;20026;-70
2022/06/04 10:23:23;;;;;;;6.22;3.85;;;;;;;;;;6275370;22;20098;-71
2022/06/04 10:25:59;;;;;;;5.25;4.00;;;;;;;;;;6275487;22;20016;-71
2022/06/04 10:28:33;;;;;;;5.57;3.92;;;;;;;;;;6275194;22;20015;-71
2022/06/04 10:31:13;;;;;;;8.65;4.10;;;;;;;;;;6248510;22;20020;-71
2022/06/04 10:33:52;;;;;;;5.40;4.07;;;;;;;;;;6274693;22;20016;-71
2022/06/04 10:36:40;;;;;;;4.88;4.07;;;;;;;;;;6275102;22;20497;-71
2022/06/04 10:39:25;;;;;;;6.38;4.32;;;;;;;;;;6249685;22;20012;-71
2022/06/04 10:41:58;;;;;;;7.20;4.43;;;;;;;;;;6250359;22;20062;-71
2022/06/04 10:44:32;;;;;;;5.90;4.20;;;;;;;;;;6276951;22;20338;-71
2022/06/04 10:47:06;;;;;;;6.60;5.20;;;;;;;;;;6249853;22;20024;-71
2022/06/04 10:49:34;;;;;;;9.15;5.30;;;;;;;;;;6276631;22;20016;-71
2022/06/04 10:52:01;;;;;;;6.53;4.75;;;;;;;;;;6276675;22;20442;-71
2022/06/04 10:54:29;;;;;;;5.13;4.28;;;;;;;;;;6276905;22;20020;-71
2022/06/04 10:56:56;;;;;;;5.40;4.15;;;;;;;;;;6276846;22;20015;-71
2022/06/04 10:59:42;;;;;;;4.80;4.30;;;;;;;;;;6276531;22;20095;-71
2022/06/04 11:02:17;;;;;;;7.82;5.60;;;;;;;;;;6276635;22;20388;-70
2022/06/04 11:04:45;;;;;;;5.35;4.22;;;;;;;;;;6276692;22;20488;-71
2022/06/04 11:07:31;;;;;;;6.47;3.65;;;;;;;;;;6249928;22;20377;-71
2022/06/04 11:09:59;;;;;;;7.95;4.15;;;;;;;;;;6276606;22;20047;-70
2022/06/04 11:12:30;;;;;;;6.88;5.10;;;;;;;;;;6276481;22;20442;-70
2022/06/04 11:15:03;;;;;;;7.13;5.50;;;;;;;;;;6276741;22;20047;-70
2022/06/04 11:17:51;;;;;;;6.00;4.93;;;;;;;;;;6276682;22;20090;-70
2022/06/04 11:20:21;;;;;;;8.40;4.18;;;;;;;;;;6256578;22;20023;-70
2022/06/04 11:23:07;;;;;;;11.25;4.82;;;;;;;;;;6276400;22;20090;-70
2022/06/04 11:25:38;;;;;;;7.28;5.22;;;;;;;;;;6276539;22;20389;-70
2022/06/04 11:28:11;;;;;;;10.32;5.40;;;;;;;;;;6276662;22;20042;-71
2022/06/04 11:30:47;;;;;;;8.90;7.90;;;;;;;;;;6276414;22;20012;-72
2022/06/04 11:33:26;;;;;;;7.60;4.80;;;;;;;;;;6276734;22;20039;-70
2022/06/04 11:36:02;;;;;;;7.20;5.32;;;;;;;;;;6276591;22;20016;-72
2022/06/04 11:38:36;;;;;;;7.90;5.15;;;;;;;;;;6276170;22;20016;-70
2022/06/04 11:41:13;;;;;;;8.45;4.93;;;;;;;;;;6276078;22;20022;-72
2022/06/04 11:43:58;;;;;;;6.95;4.28;;;;;;;;;;6276323;22;20019;-71
2022/06/04 11:46:29;;;;;;;7.72;4.75;;;;;;;;;;6276874;22;20077;-70
2022/06/04 11:48:56;;;;;;;5.45;4.15;;;;;;;;;;6275890;22;20022;-70
2022/06/04 11:51:37;;;;;;;5.30;4.18;;;;;;;;;;6276220;22;20020;-72
2022/06/04 11:54:23;;;;;;;4.63;4.15;;;;;;;;;;6275998;22;20012;-70
2022/06/04 11:57:04;;;;;;;5.78;3.80;;;;;;;;;;6249220;22;20091;-69
2022/06/04 11:59:39;;;;;;;5.85;4.20;;;;;;;;;;6249508;22;20020;-69
2022/06/04 12:02:06;;;;;;;;;;;;;;;;;;6276672;22;20111;-70
2022/06/04 12:04:51;;;;;;;6.00;4.38;;;;;;;;;;6276140;22;20370;-70
2022/06/04 12:07:21;;;;;;;7.35;4.05;;;;;;;;;;6276361;22;20102;-70
2022/06/04 12:10:06;;;;;;;4.30;3.90;;;;;;;;;;6275701;22;20039;-70
2022/06/04 12:12:36;;;;;;;6.70;4.30;;;;;;;;;;6276218;22;20011;-71
2022/06/04 12:15:17;;;;;;;6.60;4.50;;;;;;;;;;6276116;22;20066;-71
2022/06/04 12:17:47;;;;;;;8.65;4.70;;;;;;;;;;6275978;22;20062;-70
2022/06/04 12:26:23;;;;;;;6.47;4.43;;;;;;;;;;6275179;22;20016;-74
2022/06/04 12:28:51;;;;;;;4.35;3.95;;;;;;;;;;6275595;22;20011;-68
2022/06/04 12:31:34;;;;;;;4.32;3.90;;;;;;;;;;6275696;22;20027;-71
2022/06/04 12:34:03;;;;;;;11.20;7.38;;;;;;;;;;6274849;22;20095;-69
2022/06/04 12:36:37;;;;;;;6.28;4.40;;;;;;;;;;6274135;22;20062;-71
2022/06/04 12:39:07;;;;;;;9.23;4.72;;;;;;;;;;6273607;22;20028;-71
2022/06/04 12:41:52;;;;;;;5.55;4.10;;;;;;;;;;6272211;22;20441;-70
2022/06/04 12:44:22;;;;;;;5.35;4.50;;;;;;;;;;6273239;22;20065;-71
2022/06/04 12:46:51;;;;;;;4.60;3.70;;;;;;;;;;6274767;22;20016;-71
2022/06/04 12:49:34;;;;;;;4.93;4.07;;;;;;;;;;6275806;22;20099;-71
2022/06/04 12:52:07;;;;;;;5.05;3.67;;;;;;;;;;6275502;22;20015;-71
2022/06/04 12:54:38;;;;;;;7.20;4.10;;;;;;;;;;6275407;22;20318;-72
2022/06/04 12:57:06;;;;;;;6.35;4.30;;;;;;;;;;6275750;22;20069;-75
2022/06/04 12:59:36;;;;;;;4.80;3.80;;;;;;;;;;6275319;22;20081;-72
2022/06/04 13:02:22;;;;;;;6.78;4.10;;;;;;;;;;6275170;22;20020;-71
2022/06/04 13:04:50;;;;;;;6.22;3.90;;;;;;;;;;6275322;22;20095;-73
2022/06/04 13:07:23;;;;;;;15.95;6.90;;;;;;;;;;6275586;22;20023;-71
2022/06/04 13:10:03;;;;;;;7.65;4.55;;;;;;;;;;6275194;22;20027;-69
2022/06/04 13:12:31;;;;;;;99.13;38.65;;;;;;;;;;6274448;22;20020;-63
2022/06/04 13:15:17;;;;;;;5.55;4.55;;;;;;;;;;6275021;22;20016;-64
2022/06/04 13:17:47;;;;;;;8.27;4.40;;;;;;;;;;6275386;22;20095;-64
2022/06/04 13:20:34;;;;;;;7.35;5.30;;;;;;;;;;6275309;22;20015;-64
2022/06/04 13:23:21;;;;;;;7.75;4.20;;;;;;;;;;6275222;22;20086;-63
2022/06/04 13:26:12;;;;;;;6.55;4.40;;;;;;;;;;6275029;22;20011;-63
2022/06/04 13:28:41;;;;;;;6.88;4.95;;;;;;;;;;6259915;22;20012;-64
2022/06/04 13:31:18;;;;;;;6.90;4.55;;;;;;;;;;6275161;22;20022;-63
2022/06/04 13:33:45;;;;;;;5.30;4.03;;;;;;;;;;6275637;22;20446;-63
2022/06/04 13:36:15;;;;;;;6.88;4.18;;;;;;;;;;6274264;22;20039;-64
2022/06/04 13:38:43;;;;;;;5.32;3.90;;;;;;;;;;6275501;22;20043;-63
2022/06/04 13:42:00;;;;;;;7.95;4.30;;;;;;;;;;6275252;22;20058;-63
2022/06/04 13:44:05;;;;;;;;;;;;;;;;;;6275670;22;20023;-63
2022/06/04 13:46:33;;;;;;;8.35;4.55;;;;;;;;;;6275356;22;19923;-63
2022/06/04 13:49:06;;;;;;;7.00;4.53;;;;;;;;;;6275136;22;20020;-63
2022/06/04 13:51:39;;;;;;;4.95;4.15;;;;;;;;;;6274865;22;20046;-64
2022/06/04 13:54:07;;;;;;;6.95;4.55;;;;;;;;;;6275034;22;20023;-63
2022/06/04 13:56:39;;;;;;;7.70;5.10;;;;;;;;;;6273679;22;20305;-63
2022/06/04 13:59:13;;;;;;;5.90;4.05;;;;;;;;;;6274055;22;20102;-63
2022/06/04 14:01:41;;;;;;;8.80;7.13;;;;;;;;;;6274534;22;20016;-63
2022/06/04 14:06:57;;;;;;;6.85;4.55;;;;;;;;;;6274990;22;20319;-63
2022/06/04 14:09:27;;;;;;;6.70;4.25;;;;;;;;;;6274956;22;20015;-64
2022/06/04 14:12:14;;;;;;;13.38;4.85;;;;;;;;;;6275583;22;20069;-63
2022/06/04 14:15:01;;;;;;;4.88;4.10;;;;;;;;;;6277213;22;20019;-63
2022/06/04 14:17:29;;;;;;;7.10;4.10;;;;;;;;;;6277087;22;20050;-63
2022/06/04 14:20:32;;;;;;;6.55;4.95;;;;;;;;;;6276903;22;20019;-63
2022/06/04 14:23:05;;;;;;;4.40;4.00;;;;;;;;;;6153237;23;20051;-63
2022/06/04 14:25:33;;;;;;;6.30;4.90;;;;;;;;;;6258977;22;20366;-63
2022/06/04 14:28:03;;;;;;;5.85;3.83;;;;;;;;;;6249763;22;20138;-63
2022/06/04 14:30:50;;;;;;;7.10;4.18;;;;;;;;;;6276658;22;20016;-63
2022/06/04 14:33:18;;;;;;;7.00;4.68;;;;;;;;;;6276838;22;20438;-63
2022/06/04 14:35:56;;;;;;;5.72;4.45;;;;;;;;;;6276936;22;20019;-63
2022/06/04 14:38:25;;;;;;;5.90;4.07;;;;;;;;;;6276837;22;20510;-63
2022/06/04 14:41:12;;;;;;;5.25;4.30;;;;;;;;;;6276962;22;20023;-63
2022/06/04 14:43:46;;;;;;;21.63;14.65;;;;;;;;;;6276772;22;20085;-63
2022/06/04 14:46:23;;;;;;;7.82;4.95;;;;;;;;;;6277046;22;20388;-63
2022/06/04 14:48:56;;;;;;;9.88;7.28;;;;;;;;;;6276994;22;20043;-63
2022/06/04 14:51:34;;;;;;;6.27;4.63;;;;;;;;;;6276971;22;20522;-63
2022/06/04 14:54:03;;;;;;;6.20;4.63;;;;;;;;;;6276796;22;20078;-63
2022/06/04 14:56:42;;;;;;;8.10;4.45;;;;;;;;;;6249325;22;20034;-70
2022/06/04 14:59:12;;;;;;;6.60;4.13;;;;;;;;;;6276526;22;20016;-66
2022/06/04 15:01:59;;;;;;;8.93;4.80;;;;;;;;;;6276713;22;20674;-67
2022/06/04 15:07:32;;;;;;;6.90;4.53;;;;;;;;;;6276395;22;20047;-67
2022/06/04 15:10:00;;;;;;;6.43;4.75;;;;;;;;;;6249181;22;20102;-66
2022/06/04 15:12:30;;;;;;;5.70;4.50;;;;;;;;;;6276682;22;20381;-67
2022/06/04 15:15:01;;;;;;;7.25;4.03;;;;;;;;;;6276545;22;20019;-67
2022/06/04 15:17:39;;;;;;;5.70;4.53;;;;;;;;;;6276489;22;20012;-67
2022/06/04 15:20:13;;;;;;;6.90;4.88;;;;;;;;;;6276507;22;20020;-67
2022/06/04 15:22:47;;;;;;;7.57;4.65;;;;;;;;;;6276743;22;20082;-67
2022/06/04 15:25:14;;;;;;;6.15;4.93;;;;;;;;;;6276106;22;20043;-67
2022/06/04 15:27:58;;;;;;;5.18;4.55;;;;;;;;;;6276862;22;20023;-67
2022/06/04 15:36:14;;;;;;;6.68;4.50;;;;;;;;;;6275911;22;20322;-67
2022/06/04 15:38:44;;;;;;;7.15;4.72;;;;;;;;;;6276353;22;20426;-66